sensor_id;sensor_type;location;lat;lon;timestamp;pressure;altitude;pressure_sealevel;temperature
74942;BMP280;63506;49.346;8.798;2024-03-02T00:01:51;99027.03;;;2.65
74942;BMP280;63506;49.346;8.798;2024-03-02T00:04:38;99022.47;;;2.65
74942;BMP280;63506;49.346;8.798;2024-03-02T00:07:25;99026.00;;;2.57
74942;BMP280;63506;49.346;8.798;2024-03-02T00:10:16;99025.09;;;2.53
74942;BMP280;63506;49.346;8.798;2024-03-02T00:13:09;99016.19;;;2.49
74942;BMP280;63506;49.346;8.798;2024-03-02T00:15:54;99019.19;;;2.47
74942;BMP280;63506;49.346;8.798;2024-03-02T00:18:39;99015.06;;;2.50
74942;BMP280;63506;49.346;8.798;2024-03-02T00:21:27;99003.41;;;2.55
74942;BMP280;63506;49.346;8.798;2024-03-02T00:24:21;99006.72;;;2.52
74942;BMP280;63506;49.346;8.798;2024-03-02T00:27:12;99009.59;;;2.46
74942;BMP280;63506;49.346;8.798;2024-03-02T00:30:00;99006.81;;;2.43
74942;BMP280;63506;49.346;8.798;2024-03-02T00:32:50;99004.66;;;2.36
74942;BMP280;63506;49.346;8.798;2024-03-02T00:35:34;99004.53;;;2.33
74942;BMP280;63506;49.346;8.798;2024-03-02T00:38:19;99005.63;;;2.32
74942;BMP280;63506;49.346;8.798;2024-03-02T00:41:07;98996.75;;;2.28
74942;BMP280;63506;49.346;8.798;2024-03-02T00:44:01;98998.19;;;2.37
74942;BMP280;63506;49.346;8.798;2024-03-02T00:46:46;99003.66;;;2.29
74942;BMP280;63506;49.346;8.798;2024-03-02T00:49:31;99011.88;;;2.36
74942;BMP280;63506;49.346;8.798;2024-03-02T00:52:15;99012.44;;;2.29
74942;BMP280;63506;49.346;8.798;2024-03-02T00:55:02;99009.31;;;2.27
74942;BMP280;63506;49.346;8.798;2024-03-02T00:57:50;99010.91;;;2.40
74942;BMP280;63506;49.346;8.798;2024-03-02T01:00:39;99011.56;;;2.37
74942;BMP280;63506;49.346;8.798;2024-03-02T01:03:24;99013.31;;;2.33
74942;BMP280;63506;49.346;8.798;2024-03-02T01:06:10;99012.31;;;2.26
74942;BMP280;63506;49.346;8.798;2024-03-02T01:09:02;99002.78;;;2.16
74942;BMP280;63506;49.346;8.798;2024-03-02T01:11:51;99007.56;;;2.10
74942;BMP280;63506;49.346;8.798;2024-03-02T01:14:38;99010.41;;;2.05
74942;BMP280;63506;49.346;8.798;2024-03-02T01:17:25;99009.78;;;2.08
74942;BMP280;63506;49.346;8.798;2024-03-02T01:20:12;99002.06;;;2.07
74942;BMP280;63506;49.346;8.798;2024-03-02T01:22:59;99012.50;;;2.00
74942;BMP280;63506;49.346;8.798;2024-03-02T01:25:44;99017.19;;;2.03
74942;BMP280;63506;49.346;8.798;2024-03-02T01:28:30;99004.22;;;1.93
74942;BMP280;63506;49.346;8.798;2024-03-02T01:31:15;99015.81;;;1.97
74942;BMP280;63506;49.346;8.798;2024-03-02T01:34:06;99026.69;;;1.92
74942;BMP280;63506;49.346;8.798;2024-03-02T01:36:53;99026.75;;;1.83
74942;BMP280;63506;49.346;8.798;2024-03-02T01:39:37;99022.09;;;1.71
74942;BMP280;63506;49.346;8.798;2024-03-02T01:42:24;99018.06;;;1.65
74942;BMP280;63506;49.346;8.798;2024-03-02T01:45:13;99021.19;;;1.67
74942;BMP280;63506;49.346;8.798;2024-03-02T01:47:59;99016.69;;;1.59
74942;BMP280;63506;49.346;8.798;2024-03-02T01:50:49;99011.50;;;1.54
74942;BMP280;63506;49.346;8.798;2024-03-02T01:53:34;99002.56;;;1.59
74942;BMP280;63506;49.346;8.798;2024-03-02T01:56:18;98998.63;;;1.56
74942;BMP280;63506;49.346;8.798;2024-03-02T01:59:03;99006.47;;;1.61
74942;BMP280;63506;49.346;8.798;2024-03-02T02:01:49;99000.03;;;1.62
74942;BMP280;63506;49.346;8.798;2024-03-02T02:04:36;98999.28;;;1.53
74942;BMP280;63506;49.346;8.798;2024-03-02T02:07:27;98987.31;;;1.59
74942;BMP280;63506;49.346;8.798;2024-03-02T02:10:15;98987.03;;;1.52
74942;BMP280;63506;49.346;8.798;2024-03-02T02:13:02;98985.78;;;1.49
74942;BMP280;63506;49.346;8.798;2024-03-02T02:15:48;98982.53;;;1.44
74942;BMP280;63506;49.346;8.798;2024-03-02T02:18:36;98976.44;;;1.35
74942;BMP280;63506;49.346;8.798;2024-03-02T02:21:25;98973.00;;;1.34
74942;BMP280;63506;49.346;8.798;2024-03-02T02:24:10;98975.22;;;1.32
74942;BMP280;63506;49.346;8.798;2024-03-02T02:26:57;98984.97;;;1.28
74942;BMP280;63506;49.346;8.798;2024-03-02T02:29:41;98980.94;;;1.22
74942;BMP280;63506;49.346;8.798;2024-03-02T02:32:25;98979.66;;;1.28
74942;BMP280;63506;49.346;8.798;2024-03-02T02:35:09;98972.50;;;1.41
74942;BMP280;63506;49.346;8.798;2024-03-02T02:37:59;98971.00;;;1.31
74942;BMP280;63506;49.346;8.798;2024-03-02T02:40:48;98974.19;;;1.25
74942;BMP280;63506;49.346;8.798;2024-03-02T02:43:32;98977.06;;;1.11
74942;BMP280;63506;49.346;8.798;2024-03-02T02:46:16;98974.59;;;0.97
74942;BMP280;63506;49.346;8.798;2024-03-02T02:49:00;98966.44;;;0.94
74942;BMP280;63506;49.346;8.798;2024-03-02T02:51:44;98963.97;;;0.88
74942;BMP280;63506;49.346;8.798;2024-03-02T02:54:33;98962.22;;;0.84
74942;BMP280;63506;49.346;8.798;2024-03-02T02:57:23;98966.50;;;0.76
74942;BMP280;63506;49.346;8.798;2024-03-02T03:00:11;98956.28;;;0.87
74942;BMP280;63506;49.346;8.798;2024-03-02T03:03:02;98964.09;;;0.83
74942;BMP280;63506;49.346;8.798;2024-03-02T03:05:46;98947.78;;;0.85
74942;BMP280;63506;49.346;8.798;2024-03-02T03:08:30;98949.84;;;0.79
74942;BMP280;63506;49.346;8.798;2024-03-02T03:11:17;98956.28;;;0.87
74942;BMP280;63506;49.346;8.798;2024-03-02T03:14:04;98951.09;;;0.82
74942;BMP280;63506;49.346;8.798;2024-03-02T03:16:48;98961.00;;;0.73
74942;BMP280;63506;49.346;8.798;2024-03-02T03:19:32;98962.25;;;0.67
74942;BMP280;63506;49.346;8.798;2024-03-02T03:22:22;98959.13;;;0.65
74942;BMP280;63506;49.346;8.798;2024-03-02T03:25:08;98961.34;;;0.63
74942;BMP280;63506;49.346;8.798;2024-03-02T03:27:55;98966.81;;;0.66
74942;BMP280;63506;49.346;8.798;2024-03-02T03:30:39;98956.66;;;0.59
74942;BMP280;63506;49.346;8.798;2024-03-02T03:33:28;98964.78;;;0.72
74942;BMP280;63506;49.346;8.798;2024-03-02T03:36:12;98956.31;;;0.70
74942;BMP280;63506;49.346;8.798;2024-03-02T03:38:59;98957.25;;;0.65
74942;BMP280;63506;49.346;8.798;2024-03-02T03:41:44;98948.66;;;0.59
74942;BMP280;63506;49.346;8.798;2024-03-02T03:44:34;98959.00;;;0.61
74942;BMP280;63506;49.346;8.798;2024-03-02T03:47:21;98950.53;;;0.59
74942;BMP280;63506;49.346;8.798;2024-03-02T03:50:05;98952.09;;;0.60
74942;BMP280;63506;49.346;8.798;2024-03-02T03:52:52;98956.50;;;0.56
74942;BMP280;63506;49.346;8.798;2024-03-02T03:55:40;98959.94;;;0.56
74942;BMP280;63506;49.346;8.798;2024-03-02T03:58:31;98958.72;;;0.54
74942;BMP280;63506;49.346;8.798;2024-03-02T04:01:20;98952.56;;;0.62
74942;BMP280;63506;49.346;8.798;2024-03-02T04:04:05;98950.69;;;0.63
74942;BMP280;63506;49.346;8.798;2024-03-02T04:06:51;98950.69;;;0.63
74942;BMP280;63506;49.346;8.798;2024-03-02T04:09:38;98942.72;;;0.54
74942;BMP280;63506;49.346;8.798;2024-03-02T04:12:24;98950.22;;;0.52
74942;BMP280;63506;49.346;8.798;2024-03-02T04:15:11;98949.16;;;0.53
74942;BMP280;63506;49.346;8.798;2024-03-02T04:18:00;98950.41;;;0.47
74942;BMP280;63506;49.346;8.798;2024-03-02T04:20:45;98959.94;;;0.48
74942;BMP280;63506;49.346;8.798;2024-03-02T04:23:31;98951.19;;;0.47
74942;BMP280;63506;49.346;8.798;2024-03-02T04:26:15;98958.22;;;0.52
74942;BMP280;63506;49.346;8.798;2024-03-02T04:29:03;98956.81;;;0.46
74942;BMP280;63506;49.346;8.798;2024-03-02T04:31:52;98954.94;;;0.46
74942;BMP280;63506;49.346;8.798;2024-03-02T04:34:41;98958.84;;;0.57
74942;BMP280;63506;49.346;8.798;2024-03-02T04:37:28;98953.69;;;0.52
74942;BMP280;63506;49.346;8.798;2024-03-02T04:40:12;98960.28;;;0.55
74942;BMP280;63506;49.346;8.798;2024-03-02T04:42:58;98960.41;;;0.58
74942;BMP280;63506;49.346;8.798;2024-03-02T04:45:46;98966.03;;;0.66
74942;BMP280;63506;49.346;8.798;2024-03-02T04:48:31;98969.78;;;0.65
74942;BMP280;63506;49.346;8.798;2024-03-02T04:51:20;98962.09;;;0.80
74942;BMP280;63506;49.346;8.798;2024-03-02T04:54:06;98959.13;;;0.73
74942;BMP280;63506;49.346;8.798;2024-03-02T04:56:52;98948.47;;;0.73
74942;BMP280;63506;49.346;8.798;2024-03-02T04:59:39;98956.28;;;0.78
74942;BMP280;63506;49.346;8.798;2024-03-02T05:02:23;98961.44;;;0.83
74942;BMP280;63506;49.346;8.798;2024-03-02T05:05:10;98965.53;;;0.89
74942;BMP280;63506;49.346;8.798;2024-03-02T05:08:01;98964.75;;;0.89
74942;BMP280;63506;49.346;8.798;2024-03-02T05:10:45;98979.16;;;0.88
74942;BMP280;63506;49.346;8.798;2024-03-02T05:13:32;98972.56;;;0.94
74942;BMP280;63506;49.346;8.798;2024-03-02T05:16:14;98972.88;;;0.93
74942;BMP280;63506;49.346;8.798;2024-03-02T05:18:58;98983.84;;;0.91
74942;BMP280;63506;49.346;8.798;2024-03-02T05:21:42;98985.28;;;0.88
74942;BMP280;63506;49.346;8.798;2024-03-02T05:24:29;98989.97;;;0.83
74942;BMP280;63506;49.346;8.798;2024-03-02T05:27:13;98989.38;;;0.77
74942;BMP280;63506;49.346;8.798;2024-03-02T05:29:57;99001.13;;;0.76
74942;BMP280;63506;49.346;8.798;2024-03-02T05:32:46;99004.09;;;0.83
74942;BMP280;63506;49.346;8.798;2024-03-02T05:35:30;98996.44;;;0.73
74942;BMP280;63506;49.346;8.798;2024-03-02T05:38:16;98996.88;;;0.84
74942;BMP280;63506;49.346;8.798;2024-03-02T05:41:03;98990.78;;;0.75
74942;BMP280;63506;49.346;8.798;2024-03-02T05:43:48;98996.59;;;0.77
74942;BMP280;63506;49.346;8.798;2024-03-02T05:46:32;98999.88;;;0.74
74942;BMP280;63506;49.346;8.798;2024-03-02T05:49:17;98995.97;;;0.71
74942;BMP280;63506;49.346;8.798;2024-03-02T05:52:01;98999.41;;;0.63
74942;BMP280;63506;49.346;8.798;2024-03-02T05:54:45;99002.44;;;0.53
74942;BMP280;63506;49.346;8.798;2024-03-02T05:57:32;98997.38;;;0.51
74942;BMP280;63506;49.346;8.798;2024-03-02T06:00:28;99003.97;;;0.63
74942;BMP280;63506;49.346;8.798;2024-03-02T06:03:17;99005.06;;;0.61
74942;BMP280;63506;49.346;8.798;2024-03-02T06:06:04;98999.09;;;0.65
74942;BMP280;63506;49.346;8.798;2024-03-02T06:08:52;99000.69;;;0.57
74942;BMP280;63506;49.346;8.798;2024-03-02T06:11:39;98993.63;;;0.61
74942;BMP280;63506;49.346;8.798;2024-03-02T06:14:26;98990.19;;;0.60
74942;BMP280;63506;49.346;8.798;2024-03-02T06:17:13;98988.44;;;0.65
74942;BMP280;63506;49.346;8.798;2024-03-02T06:19:59;98989.56;;;0.72
74942;BMP280;63506;49.346;8.798;2024-03-02T06:22:44;98982.47;;;0.76
74942;BMP280;63506;49.346;8.798;2024-03-02T06:25:28;98981.69;;;0.76
74942;BMP280;63506;49.346;8.798;2024-03-02T06:28:12;98995.97;;;0.71
74942;BMP280;63506;49.346;8.798;2024-03-02T06:30:59;98997.53;;;0.72
74942;BMP280;63506;49.346;8.798;2024-03-02T06:33:46;99010.88;;;0.72
74942;BMP280;63506;49.346;8.798;2024-03-02T06:36:30;99009.41;;;0.83
74942;BMP280;63506;49.346;8.798;2024-03-02T06:39:17;99009.09;;;0.94
74942;BMP280;63506;49.346;8.798;2024-03-02T06:42:03;99018.31;;;1.05
74942;BMP280;63506;49.346;8.798;2024-03-02T06:44:48;99017.22;;;1.06
74942;BMP280;63506;49.346;8.798;2024-03-02T06:47:34;99018.78;;;1.07
74942;BMP280;63506;49.346;8.798;2024-03-02T06:50:18;99009.78;;;1.20
74942;BMP280;63506;49.346;8.798;2024-03-02T06:53:03;99010.34;;;1.34
74942;BMP280;63506;49.346;8.798;2024-03-02T06:55:50;99015.69;;;1.34
74942;BMP280;63506;49.346;8.798;2024-03-02T06:58:34;99013.44;;;1.45
74942;BMP280;63506;49.346;8.798;2024-03-02T07:01:18;99014.50;;;1.52
74942;BMP280;63506;49.346;8.798;2024-03-02T07:04:07;99020.31;;;1.84
74942;BMP280;63506;49.346;8.798;2024-03-02T07:06:54;99028.38;;;1.96
74942;BMP280;63506;49.346;8.798;2024-03-02T07:09:38;99026.63;;;1.79
74942;BMP280;63506;49.346;8.798;2024-03-02T07:12:24;99024.44;;;1.73
74942;BMP280;63506;49.346;8.798;2024-03-02T07:15:11;99013.63;;;1.69
74942;BMP280;63506;49.346;8.798;2024-03-02T07:18:10;99021.41;;;1.83
74942;BMP280;63506;49.346;8.798;2024-03-02T07:20:57;99026.63;;;1.79
74942;BMP280;63506;49.346;8.798;2024-03-02T07:23:42;99023.94;;;1.79
74942;BMP280;63506;49.346;8.798;2024-03-02T07:26:29;99020.75;;;1.86
74942;BMP280;63506;49.346;8.798;2024-03-02T07:29:14;99023.03;;;1.75
74942;BMP280;63506;49.346;8.798;2024-03-02T07:32:00;99034.44;;;1.84
74942;BMP280;63506;49.346;8.798;2024-03-02T07:34:49;99037.03;;;1.93
74942;BMP280;63506;49.346;8.798;2024-03-02T07:37:38;99032.94;;;1.96
74942;BMP280;63506;49.346;8.798;2024-03-02T07:40:28;99035.41;;;2.01
74942;BMP280;63506;49.346;8.798;2024-03-02T07:43:12;99031.75;;;2.05
74942;BMP280;63506;49.346;8.798;2024-03-02T07:45:57;99042.41;;;2.14
74942;BMP280;63506;49.346;8.798;2024-03-02T07:48:41;99044.56;;;2.21
74942;BMP280;63506;49.346;8.798;2024-03-02T07:51:26;99038.56;;;2.24
74942;BMP280;63506;49.346;8.798;2024-03-02T07:54:13;99043.81;;;2.32
74942;BMP280;63506;49.346;8.798;2024-03-02T07:57:00;99034.31;;;2.43
74942;BMP280;63506;49.346;8.798;2024-03-02T07:59:47;99041.19;;;2.65
74942;BMP280;63506;49.346;8.798;2024-03-02T08:02:34;99042.63;;;3.08
74942;BMP280;63506;49.346;8.798;2024-03-02T08:05:18;99046.97;;;3.86
74942;BMP280;63506;49.346;8.798;2024-03-02T08:08:04;99046.25;;;4.85
74942;BMP280;63506;49.346;8.798;2024-03-02T08:10:51;99050.38;;;5.61
74942;BMP280;63506;49.346;8.798;2024-03-02T08:13:40;99053.53;;;6.40
74942;BMP280;63506;49.346;8.798;2024-03-02T08:16:26;99052.34;;;7.03
74942;BMP280;63506;49.346;8.798;2024-03-02T08:19:11;99048.94;;;7.58
74942;BMP280;63506;49.346;8.798;2024-03-02T08:21:55;99045.72;;;7.23
74942;BMP280;63506;49.346;8.798;2024-03-02T08:24:41;99054.72;;;7.60
74942;BMP280;63506;49.346;8.798;2024-03-02T08:27:28;99045.88;;;7.60
74942;BMP280;63506;49.346;8.798;2024-03-02T08:30:14;99044.72;;;7.61
74942;BMP280;63506;49.346;8.798;2024-03-02T08:33:01;99045.75;;;8.13
74942;BMP280;63506;49.346;8.798;2024-03-02T08:35:45;99046.38;;;8.69
74942;BMP280;63506;49.346;8.798;2024-03-02T08:38:34;99045.06;;;9.59
74942;BMP280;63506;49.346;8.798;2024-03-02T08:41:19;99039.44;;;9.99
74942;BMP280;63506;49.346;8.798;2024-03-02T08:44:09;99041.41;;;10.10
74942;BMP280;63506;49.346;8.798;2024-03-02T08:46:53;99040.19;;;9.96
74942;BMP280;63506;49.346;8.798;2024-03-02T08:49:38;99036.81;;;10.49
74942;BMP280;63506;49.346;8.798;2024-03-02T08:52:22;99032.47;;;10.02
74942;BMP280;63506;49.346;8.798;2024-03-02T08:55:09;99027.81;;;9.92
74942;BMP280;63506;49.346;8.798;2024-03-02T08:57:58;99030.88;;;9.83
74942;BMP280;63506;49.346;8.798;2024-03-02T09:00:46;99023.09;;;9.71
74942;BMP280;63506;49.346;8.798;2024-03-02T09:03:33;99019.41;;;10.54
74942;BMP280;63506;49.346;8.798;2024-03-02T09:06:21;99032.56;;;11.12
74942;BMP280;63506;49.346;8.798;2024-03-02T09:09:05;99024.09;;;11.94
74942;BMP280;63506;49.346;8.798;2024-03-02T09:11:54;99018.78;;;11.79
74942;BMP280;63506;49.346;8.798;2024-03-02T09:14:39;99022.56;;;11.96
74942;BMP280;63506;49.346;8.798;2024-03-02T09:17:27;99020.31;;;11.80
74942;BMP280;63506;49.346;8.798;2024-03-02T09:20:11;99020.53;;;12.11
74942;BMP280;63506;49.346;8.798;2024-03-02T09:22:59;99022.38;;;12.21
74942;BMP280;63506;49.346;8.798;2024-03-02T09:25:45;99012.28;;;13.11
74942;BMP280;63506;49.346;8.798;2024-03-02T09:28:30;99016.56;;;12.22
74942;BMP280;63506;49.346;8.798;2024-03-02T09:31:16;99004.31;;;11.93
74942;BMP280;63506;49.346;8.798;2024-03-02T09:34:03;99012.00;;;12.09
74942;BMP280;63506;49.346;8.798;2024-03-02T09:36:50;99004.59;;;12.13
74942;BMP280;63506;49.346;8.798;2024-03-02T09:39:43;99003.94;;;11.95
74942;BMP280;63506;49.346;8.798;2024-03-02T09:42:30;99003.47;;;12.10
74942;BMP280;63506;49.346;8.798;2024-03-02T09:45:20;99011.50;;;12.25
74942;BMP280;63506;49.346;8.798;2024-03-02T09:48:07;99003.72;;;12.34
74942;BMP280;63506;49.346;8.798;2024-03-02T09:50:54;99008.75;;;12.28
74942;BMP280;63506;49.346;8.798;2024-03-02T09:53:38;99010.03;;;12.16
74942;BMP280;63506;49.346;8.798;2024-03-02T09:56:31;99013.13;;;12.67
74942;BMP280;63506;49.346;8.798;2024-03-02T09:59:15;99004.88;;;12.29
74942;BMP280;63506;49.346;8.798;2024-03-02T10:02:02;98999.94;;;12.65
74942;BMP280;63506;49.346;8.798;2024-03-02T10:04:50;99001.31;;;12.84
74942;BMP280;63506;49.346;8.798;2024-03-02T10:07:37;98992.56;;;12.62
74942;BMP280;63506;49.346;8.798;2024-03-02T10:10:22;99001.16;;;12.61
74942;BMP280;63506;49.346;8.798;2024-03-02T10:13:07;98998.84;;;12.55
74942;BMP280;63506;49.346;8.798;2024-03-02T10:15:52;98998.78;;;12.63
74942;BMP280;63506;49.346;8.798;2024-03-02T10:18:37;99000.53;;;12.87
74942;BMP280;63506;49.346;8.798;2024-03-02T10:21:22;98983.97;;;13.08
74942;BMP280;63506;49.346;8.798;2024-03-02T10:24:12;98984.22;;;13.21
74942;BMP280;63506;49.346;8.798;2024-03-02T10:26:56;98983.25;;;13.04
74942;BMP280;63506;49.346;8.798;2024-03-02T10:29:46;98973.44;;;13.10
74942;BMP280;63506;49.346;8.798;2024-03-02T10:32:33;98983.53;;;13.13
74942;BMP280;63506;49.346;8.798;2024-03-02T10:35:19;98976.09;;;12.83
74942;BMP280;63506;49.346;8.798;2024-03-02T10:38:04;98966.38;;;13.20
74942;BMP280;63506;49.346;8.798;2024-03-02T10:40:56;98964.50;;;13.13
74942;BMP280;63506;49.346;8.798;2024-03-02T10:43:44;98967.13;;;13.51
74942;BMP280;63506;49.346;8.798;2024-03-02T10:46:30;98968.78;;;13.45
74942;BMP280;63506;49.346;8.798;2024-03-02T10:49:17;98967.22;;;13.44
74942;BMP280;63506;49.346;8.798;2024-03-02T10:52:01;98962.06;;;13.53
74942;BMP280;63506;49.346;8.798;2024-03-02T10:54:48;98958.69;;;13.72
74942;BMP280;63506;49.346;8.798;2024-03-02T10:57:42;98955.47;;;13.50
74942;BMP280;63506;49.346;8.798;2024-03-02T11:00:33;98943.75;;;13.57
74942;BMP280;63506;49.346;8.798;2024-03-02T11:03:20;98941.88;;;13.50
74942;BMP280;63506;49.346;8.798;2024-03-02T11:06:07;98950.34;;;13.83
74942;BMP280;63506;49.346;8.798;2024-03-02T11:08:53;98942.03;;;13.93
74942;BMP280;63506;49.346;8.798;2024-03-02T11:11:43;98945.38;;;13.78
74942;BMP280;63506;49.346;8.798;2024-03-02T11:14:34;98944.06;;;13.89
74942;BMP280;63506;49.346;8.798;2024-03-02T11:17:22;98944.94;;;14.29
74942;BMP280;63506;49.346;8.798;2024-03-02T11:20:08;98941.50;;;14.02
74942;BMP280;63506;49.346;8.798;2024-03-02T11:22:56;98934.41;;;14.08
74942;BMP280;63506;49.346;8.798;2024-03-02T11:25:43;98927.22;;;14.18
74942;BMP280;63506;49.346;8.798;2024-03-02T11:28:35;98935.78;;;13.69
74942;BMP280;63506;49.346;8.798;2024-03-02T11:31:57;98936.09;;;13.75
74942;BMP280;63506;49.346;8.798;2024-03-02T11:34:48;98916.81;;;14.13
74942;BMP280;63506;49.346;8.798;2024-03-02T11:37:33;98916.44;;;14.57
74942;BMP280;63506;49.346;8.798;2024-03-02T11:40:21;98905.63;;;14.30
74942;BMP280;63506;49.346;8.798;2024-03-02T11:43:06;98902.66;;;14.64
74942;BMP280;63506;49.346;8.798;2024-03-02T11:45:56;98889.84;;;14.41
74942;BMP280;63506;49.346;8.798;2024-03-02T11:48:43;98889.59;;;14.56
74942;BMP280;63506;49.346;8.798;2024-03-02T11:51:32;98882.31;;;14.49
74942;BMP280;63506;49.346;8.798;2024-03-02T11:54:17;98880.38;;;14.69
74942;BMP280;63506;49.346;8.798;2024-03-02T11:57:04;98883.25;;;14.62
74942;BMP280;63506;49.346;8.798;2024-03-02T11:59:49;98875.97;;;14.56
74942;BMP280;63506;49.346;8.798;2024-03-02T12:02:37;98871.13;;;14.83
74942;BMP280;63506;49.346;8.798;2024-03-02T12:05:28;98870.25;;;14.70
74942;BMP280;63506;49.346;8.798;2024-03-02T12:08:13;98863.13;;;14.76
74942;BMP280;63506;49.346;8.798;2024-03-02T12:11:01;98859.13;;;14.80
74942;BMP280;63506;49.346;8.798;2024-03-02T12:13:53;98861.72;;;14.68
74942;BMP280;63506;49.346;8.798;2024-03-02T12:16:43;98859.38;;;14.47
74942;BMP280;63506;49.346;8.798;2024-03-02T12:19:32;98853.84;;;15.09
74942;BMP280;63506;49.346;8.798;2024-03-02T12:22:24;98857.38;;;15.06
74942;BMP280;63506;49.346;8.798;2024-03-02T12:25:13;98847.22;;;14.71
74942;BMP280;63506;49.346;8.798;2024-03-02T12:28:00;98840.81;;;14.81
74942;BMP280;63506;49.346;8.798;2024-03-02T12:30:50;98838.63;;;14.72
74942;BMP280;63506;49.346;8.798;2024-03-02T12:33:38;98837.09;;;14.91
74942;BMP280;63506;49.346;8.798;2024-03-02T12:36:23;98835.41;;;14.97
74942;BMP280;63506;49.346;8.798;2024-03-02T12:39:15;98836.28;;;15.10
74942;BMP280;63506;49.346;8.798;2024-03-02T12:42:02;98834.25;;;15.31
74942;BMP280;63506;49.346;8.798;2024-03-02T12:44:51;98833.41;;;15.50
74942;BMP280;63506;49.346;8.798;2024-03-02T12:47:39;98825.88;;;15.38
74942;BMP280;63506;49.346;8.798;2024-03-02T12:50:27;98823.56;;;15.69
74942;BMP280;63506;49.346;8.798;2024-03-02T12:53:16;98824.09;;;15.64
74942;BMP280;63506;49.346;8.798;2024-03-02T12:56:07;98817.34;;;15.36
74942;BMP280;63506;49.346;8.798;2024-03-02T12:58:53;98812.84;;;15.45
74942;BMP280;63506;49.346;8.798;2024-03-02T13:01:50;98818.22;;;15.65
74942;BMP280;63506;49.346;8.798;2024-03-02T13:04:36;98822.28;;;15.57
74942;BMP280;63506;49.346;8.798;2024-03-02T13:07:25;98815.25;;;15.60
74942;BMP280;63506;49.346;8.798;2024-03-02T13:10:10;98807.84;;;15.44
74942;BMP280;63506;49.346;8.798;2024-03-02T13:13:01;98808.06;;;15.66
74942;BMP280;63506;49.346;8.798;2024-03-02T13:15:48;98805.88;;;15.73
74942;BMP280;63506;49.346;8.798;2024-03-02T13:18:33;98803.91;;;15.61
74942;BMP280;63506;49.346;8.798;2024-03-02T13:21:17;98801.50;;;15.63
74942;BMP280;63506;49.346;8.798;2024-03-02T13:24:02;98803.44;;;15.63
74942;BMP280;63506;49.346;8.798;2024-03-02T13:26:49;98798.00;;;15.63
74942;BMP280;63506;49.346;8.798;2024-03-02T13:29:39;98801.31;;;15.70
74942;BMP280;63506;49.346;8.798;2024-03-02T13:32:23;98794.69;;;15.84
74942;BMP280;63506;49.346;8.798;2024-03-02T13:35:10;98787.75;;;15.67
74942;BMP280;63506;49.346;8.798;2024-03-02T13:37:59;98796.72;;;15.51
74942;BMP280;63506;49.346;8.798;2024-03-02T13:40:46;98792.47;;;15.50
74942;BMP280;63506;49.346;8.798;2024-03-02T13:43:34;98789.63;;;15.53
74942;BMP280;63506;49.346;8.798;2024-03-02T13:46:25;98784.84;;;15.57
74942;BMP280;63506;49.346;8.798;2024-03-02T13:49:09;98789.97;;;15.72
74942;BMP280;63506;49.346;8.798;2024-03-02T13:51:56;98779.91;;;15.69
74942;BMP280;63506;49.346;8.798;2024-03-02T13:54:46;98769.03;;;15.81
74942;BMP280;63506;49.346;8.798;2024-03-02T13:57:33;98770.63;;;15.66
74942;BMP280;63506;49.346;8.798;2024-03-02T14:00:18;98768.72;;;15.63
74942;BMP280;63506;49.346;8.798;2024-03-02T14:03:06;98762.69;;;15.55
74942;BMP280;63506;49.346;8.798;2024-03-02T14:05:50;98752.94;;;15.71
74942;BMP280;63506;49.346;8.798;2024-03-02T14:08:37;98758.63;;;15.76
74942;BMP280;63506;49.346;8.798;2024-03-02T14:11:26;98758.00;;;15.85
74942;BMP280;63506;49.346;8.798;2024-03-02T14:14:11;98753.25;;;15.73
74942;BMP280;63506;49.346;8.798;2024-03-02T14:16:59;98749.91;;;15.52
74942;BMP280;63506;49.346;8.798;2024-03-02T14:19:50;98741.56;;;15.60
74942;BMP280;63506;49.346;8.798;2024-03-02T14:22:35;98738.06;;;15.59
74942;BMP280;63506;49.346;8.798;2024-03-02T14:25:24;98738.56;;;15.54
74942;BMP280;63506;49.346;8.798;2024-03-02T14:28:10;98733.16;;;15.67
74942;BMP280;63506;49.346;8.798;2024-03-02T14:31:00;98741.94;;;15.58
74942;BMP280;63506;49.346;8.798;2024-03-02T14:33:44;98738.72;;;15.63
74942;BMP280;63506;49.346;8.798;2024-03-02T14:36:34;98737.22;;;15.30
74942;BMP280;63506;49.346;8.798;2024-03-02T14:39:21;98730.34;;;15.25
74942;BMP280;63506;49.346;8.798;2024-03-02T14:42:05;98722.22;;;15.38
74942;BMP280;63506;49.346;8.798;2024-03-02T14:44:54;98725.19;;;15.43
74942;BMP280;63506;49.346;8.798;2024-03-02T14:47:38;98723.91;;;15.48
74942;BMP280;63506;49.346;8.798;2024-03-02T14:50:25;98711.09;;;15.45
74942;BMP280;63506;49.346;8.798;2024-03-02T14:53:14;98710.03;;;15.42
74942;BMP280;63506;49.346;8.798;2024-03-02T14:55:59;98712.22;;;15.76
74942;BMP280;63506;49.346;8.798;2024-03-02T14:58:43;98706.50;;;16.00
74942;BMP280;63506;49.346;8.798;2024-03-02T15:01:32;98696.81;;;16.11
74942;BMP280;63506;49.346;8.798;2024-03-02T15:04:16;98696.91;;;16.08
74942;BMP280;63506;49.346;8.798;2024-03-02T15:07:04;98698.88;;;16.07
74942;BMP280;63506;49.346;8.798;2024-03-02T15:09:54;98696.91;;;16.08
74942;BMP280;63506;49.346;8.798;2024-03-02T15:12:42;98693.94;;;16.02
74942;BMP280;63506;49.346;8.798;2024-03-02T15:15:26;98692.53;;;15.98
74942;BMP280;63506;49.346;8.798;2024-03-02T15:18:11;98679.38;;;15.92
74942;BMP280;63506;49.346;8.798;2024-03-02T15:20:55;98685.94;;;15.82
74942;BMP280;63506;49.346;8.798;2024-03-02T15:23:41;98683.25;;;15.66
74942;BMP280;63506;49.346;8.798;2024-03-02T15:26:28;98676.34;;;15.62
74942;BMP280;63506;49.346;8.798;2024-03-02T15:29:13;98677.09;;;15.49
74942;BMP280;63506;49.346;8.798;2024-03-02T15:32:03;98674.94;;;15.41
74942;BMP280;63506;49.346;8.798;2024-03-02T15:34:49;98668.69;;;15.28
74942;BMP280;63506;49.346;8.798;2024-03-02T15:37:35;98668.63;;;15.15
74942;BMP280;63506;49.346;8.798;2024-03-02T15:40:24;98662.16;;;15.09
74942;BMP280;63506;49.346;8.798;2024-03-02T15:43:12;98658.84;;;14.85
74942;BMP280;63506;49.346;8.798;2024-03-02T15:45:58;98661.13;;;14.70
74942;BMP280;63506;49.346;8.798;2024-03-02T15:48:46;98664.81;;;14.80
74942;BMP280;63506;49.346;8.798;2024-03-02T15:51:35;98661.13;;;14.70
74942;BMP280;63506;49.346;8.798;2024-03-02T15:54:22;98671.69;;;14.52
74942;BMP280;63506;49.346;8.798;2024-03-02T15:57:08;98670.81;;;14.39
74942;BMP280;63506;49.346;8.798;2024-03-02T15:59:55;98666.28;;;14.32
74942;BMP280;63506;49.346;8.798;2024-03-02T16:02:42;98664.19;;;14.04
74942;BMP280;63506;49.346;8.798;2024-03-02T16:05:29;98668.56;;;13.78
74942;BMP280;63506;49.346;8.798;2024-03-02T16:08:15;98665.94;;;13.51
74942;BMP280;63506;49.346;8.798;2024-03-02T16:11:00;98667.47;;;13.29